Red Lake, Canada
Current Conditions -  °F | °C
As of 4:00 AM on Friday 24 Oct 2014 (Local Time) from CYRL Reporting Station
Overcast Overcast  
Wind Chill: 44°   Ceiling: 8000
Heat Index: 46°   Visibility: 15mi
Dew Point: 43°   Wind: 6mph
Humidity: 87%   Direction: 140°SE
Pressure: 29.69"   Gusts: NA
Location:  51.09°N, 93.97°W
Report Text: CYRL 240900Z 14005KT 15SM OVC080 08/06 A2969 RMK AS8 SLP065
Loading
Personal Weather Stations






























Interactive Weather Map
Tropical Storm Tracking
New forecast layout! Learn more

10-Day Weather Forecast

Advertisements
Track Severe Weather on mobile